Time;durP1;ratioP1;P1;durP2;ratioP2;P2;SDS_P1;SDS_P2;PMS_P1;PMS_P2;Temp;Humidity;BMP_temperature;BMP_pressure;BME280_temperature;BME280_humidity;BME280_pressure;Samples;Min_cycle;Max_cycle;Signal;HPM_P1;HPM_P2
2022/06/09 00:01:48;;;;;;;;;3.00;3.00;;;;;15.50;78.60;100868.25;5100853;27;45296;-74
2022/06/09 00:04:23;;;;;;;;;3.33;3.33;;;;;15.48;78.74;100875.69;5097895;27;45274;-74
2022/06/09 00:06:54;;;;;;;;;3.00;3.00;;;;;15.39;79.03;100861.66;5081427;27;45476;-74
2022/06/09 00:09:22;;;;;;;;;4.00;4.00;;;;;15.44;78.46;100880.63;5081482;28;45385;-74
2022/06/09 00:11:50;;;;;;;;;3.67;3.67;;;;;15.30;78.82;100868.22;5081394;28;45373;-74
2022/06/09 00:14:18;;;;;;;;;7.00;3.33;;;;;15.22;79.15;100878.09;5081384;28;45422;-74
2022/06/09 00:16:44;;;;;;;;;4.33;4.33;;;;;15.18;79.50;100876.03;5080123;28;47340;-74
2022/06/09 00:19:10;;;;;;;;;4.00;4.00;;;;;15.24;79.55;100892.09;5081174;27;45357;-74
2022/06/09 00:21:37;;;;;;;;;4.00;4.00;;;;;15.19;80.03;100891.06;5081458;27;45334;-73
2022/06/09 00:24:03;;;;;;;;;5.67;3.00;;;;;15.21;79.89;100897.88;5080228;28;45332;-74
2022/06/09 00:26:29;;;;;;;;;5.67;5.00;;;;;15.19;79.64;100896.41;5081286;27;45232;-74
2022/06/09 00:28:55;;;;;;;;;4.00;3.00;;;;;15.19;79.97;100907.97;5081227;28;45279;-74
2022/06/09 00:31:22;;;;;;;;;3.00;3.00;;;;;15.12;79.94;100891.06;5079872;28;45296;-73
2022/06/09 00:33:47;;;;;;;;;4.00;4.00;;;;;15.09;80.06;100892.25;5080597;28;45496;-74
2022/06/09 00:36:13;;;;;;;;;5.00;4.67;;;;;15.11;79.99;100900.09;5078574;28;47395;-74
2022/06/09 00:38:38;;;;;;;;;5.00;5.00;;;;;15.11;80.38;100916.16;5080800;28;45300;-73
2022/06/09 00:41:04;;;;;;;;;4.00;4.00;;;;;15.10;80.25;100915.34;5081123;28;45305;-75
2022/06/09 00:43:31;;;;;;;;;3.67;3.67;;;;;15.05;80.21;100904.41;5081038;27;45389;-73
2022/06/09 00:46:06;;;;;;;;;4.00;4.00;;;;;15.10;80.20;100919.84;5079723;28;47071;-74
2022/06/09 00:48:43;;;;;;;;;4.00;4.00;;;;;15.09;80.24;100912.88;5080650;27;45939;-74
2022/06/09 00:51:11;;;;;;;;;4.67;4.67;;;;;15.09;79.91;100911.00;5080870;28;45325;-73
2022/06/09 00:53:40;;;;;;;;;6.33;5.33;;;;;15.03;78.93;100895.75;5081161;28;45398;-73
2022/06/09 00:56:08;;;;;;;;;6.00;6.00;;;;;15.00;79.26;100891.59;5080795;27;45456;-73
2022/06/09 00:58:37;;;;;;;;;3.00;3.00;;;;;14.97;78.96;100880.50;5080632;28;46326;-74
2022/06/09 01:01:07;;;;;;;;;7.00;7.00;;;;;15.05;79.21;100904.41;5080617;28;45381;-73
2022/06/09 01:03:45;;;;;;;;;4.00;4.00;;;;;15.10;78.80;100904.63;5079583;28;45408;-73
2022/06/09 01:06:20;;;;;;;;;3.33;3.00;;;;;15.04;78.95;100899.25;5092605;27;46392;-74
2022/06/09 01:09:11;;;;;;;;;5.33;5.00;;;;;15.15;78.69;100906.72;5060161;28;45380;-74
2022/06/09 01:11:37;;;;;;;;;4.00;3.33;;;;;15.17;78.49;100912.69;5060283;27;45332;-73
2022/06/09 01:14:05;;;;;;;;;5.67;5.67;;;;;15.12;78.30;100896.41;5060735;28;45335;-73
2022/06/09 01:17:02;;;;;;;;;4.00;3.00;;;;;15.19;78.67;100915.16;5058947;28;46214;-73
2022/06/09 01:19:39;;;;;;;;;5.00;4.00;;;;;15.24;78.71;100913.53;5066364;28;47595;-74
2022/06/09 01:22:36;;;;;;;;;4.67;4.00;;;;;15.22;78.52;100917.44;5060255;28;45482;-74
2022/06/09 01:25:31;;;;;;;;;4.67;3.33;;;;;15.19;78.39;100905.28;5092893;27;45353;-73
2022/06/09 01:28:25;;;;;;;;;4.33;4.00;;;;;15.24;78.74;100918.88;5060281;28;45458;-74
2022/06/09 01:30:59;;;;;;;;;7.00;4.00;;;;;15.27;78.68;100920.34;5060156;28;45292;-74
2022/06/09 01:33:40;;;;;;;;;3.00;2.00;;;;;15.26;78.10;100921.34;5075579;28;45441;-73
2022/06/09 01:36:14;;;;;;;;;3.00;3.00;;;;;15.24;78.10;100934.94;5058776;28;45344;-73
2022/06/09 01:38:47;;;;;;;;;4.33;4.00;;;;;15.22;78.36;100931.66;5059736;28;45214;-74
2022/06/09 01:41:13;;;;;;;;;4.67;3.00;;;;;15.22;78.61;100944.19;5059665;28;46150;-74
2022/06/09 01:43:39;;;;;;;;;3.67;3.67;;;;;15.17;78.22;100934.09;5059862;28;45313;-73
2022/06/09 01:46:16;;;;;;;;;4.00;3.67;;;;;15.14;78.62;100929.13;5059686;28;45295;-73
2022/06/09 01:48:42;;;;;;;;;5.67;4.00;;;;;15.19;78.16;100939.25;5059629;28;45335;-73
2022/06/09 01:51:14;;;;;;;;;5.00;3.00;;;;;15.13;78.31;100938.19;5058088;28;46951;-76
2022/06/09 01:53:44;;;;;;;;;2.67;2.00;;;;;15.16;78.41;100935.13;5059478;28;45453;-74
2022/06/09 01:56:25;;;;;;;;;5.00;4.33;;;;;15.17;78.10;100944.78;5059345;28;45370;-74
2022/06/09 01:58:56;;;;;;;;;5.67;5.67;;;;;15.11;78.58;100938.41;5059648;28;45346;-74
2022/06/09 02:01:29;;;;;;;;;3.67;3.67;;;;;15.15;78.94;100947.66;5059454;28;45362;-74
2022/06/09 02:03:59;;;;;;;;;3.00;3.00;;;;;15.13;78.53;100947.06;5077592;27;45375;-73
2022/06/09 02:06:25;;;;;;;;;5.00;5.00;;;;;15.05;78.86;100939.19;5100097;27;45274;-74
2022/06/09 02:08:52;;;;;;;;;3.00;3.00;;;;;15.05;78.86;100954.44;5099933;27;45305;-74
2022/06/09 02:11:18;;;;;;;;;5.00;4.00;;;;;15.09;78.50;100974.44;5099716;27;45382;-74
2022/06/09 02:13:48;;;;;;;;;4.00;3.67;;;;;14.98;79.14;100960.59;5100079;27;45359;-74
2022/06/09 02:16:17;;;;;;;;;7.67;6.00;;;;;15.03;79.06;100965.34;5100272;27;45293;-74
2022/06/09 02:18:46;;;;;;;;;5.33;4.33;;;;;14.96;78.92;100959.09;5098681;27;47084;-74
2022/06/09 02:21:18;;;;;;;;;3.00;3.00;;;;;14.95;78.88;100958.31;5099576;27;46435;-74
2022/06/09 02:23:45;;;;;;;;;4.00;4.00;;;;;14.94;79.02;100955.81;5099824;27;45414;-75
2022/06/09 02:26:10;;;;;;;;;2.67;2.67;;;;;14.91;78.60;100956.22;5099912;27;45474;-74
2022/06/09 02:28:36;;;;;;;;;3.00;3.00;;;;;14.90;79.23;100966.09;5099685;27;45271;-74
2022/06/09 02:31:02;;;;;;;;;5.00;4.00;;;;;14.95;79.15;100974.38;5099815;27;45357;-73
2022/06/09 02:33:27;;;;;;;;;4.00;4.00;;;;;14.97;79.05;100969.63;5098380;27;45495;-74
2022/06/09 02:35:53;;;;;;;;;5.00;3.67;;;;;14.83;79.13;100951.84;5098532;27;45272;-73
2022/06/09 02:38:20;;;;;;;;;5.33;4.67;;;;;14.98;78.80;100967.78;5099555;27;45547;-74
2022/06/09 02:40:46;;;;;;;;;4.00;4.00;;;;;14.89;78.98;100961.75;5097913;27;48098;-75
2022/06/09 02:43:13;;;;;;;;;6.00;5.00;;;;;14.89;78.89;100964.44;5098251;27;45665;-74
2022/06/09 02:45:38;;;;;;;;;4.00;4.00;;;;;14.92;79.10;100968.56;5099658;27;45403;-75
2022/06/09 02:48:04;;;;;;;;;6.00;4.33;;;;;14.93;79.03;100967.56;5132875;27;46221;-73
2022/06/09 02:50:30;;;;;;;;;7.00;6.67;;;;;14.98;79.23;100978.47;5099717;27;45388;-73
2022/06/09 02:52:56;;;;;;;;;4.67;4.00;;;;;14.97;78.84;100982.19;5097774;27;46286;-74
2022/06/09 02:55:21;;;;;;;;;4.00;4.00;;;;;14.96;78.92;100984.03;5099637;27;45342;-74
2022/06/09 02:57:46;;;;;;;;;5.00;4.67;;;;;14.91;79.22;100977.63;5098974;27;45982;-74
2022/06/09 03:00:14;;;;;;;;;4.00;4.00;;;;;14.86;78.82;100980.88;5102908;27;45275;-74
2022/06/09 03:02:51;;;;;;;;;4.00;3.00;;;;;14.84;79.42;100978.41;5103147;27;45304;-73
2022/06/09 03:05:16;;;;;;;;;3.67;3.00;;;;;14.88;79.08;100976.19;5088840;27;45351;-74
2022/06/09 03:07:42;;;;;;;;;5.67;5.67;;;;;14.81;79.17;100972.66;5081962;28;45470;-74
2022/06/09 03:10:08;;;;;;;;;7.00;5.00;;;;;14.93;79.30;100999.69;5082652;27;46562;-74
2022/06/09 03:12:33;;;;;;;;;5.00;5.00;;;;;14.91;78.89;100986.50;5081295;27;45379;-73
2022/06/09 03:14:59;;;;;;;;;4.67;2.67;;;;;14.86;78.79;100978.22;5082698;27;45378;-74
2022/06/09 03:17:25;;;;;;;;;8.00;4.67;;;;;14.89;78.98;100985.84;5082655;27;45503;-73
2022/06/09 03:19:50;;;;;;;;;7.00;6.00;;;;;14.91;79.38;100993.69;5082459;27;45271;-74
2022/06/09 03:22:17;;;;;;;;;3.33;3.00;;;;;14.89;78.83;100992.03;5097819;27;45306;-74
2022/06/09 03:24:42;;;;;;;;;5.33;3.33;;;;;14.89;78.54;100993.88;5082690;27;45271;-75
2022/06/09 03:27:08;;;;;;;;;4.00;4.00;;;;;14.89;79.07;100993.88;5082063;27;45219;-74
2022/06/09 03:29:33;;;;;;;;;2.67;2.67;;;;;14.82;78.81;100993.00;5082353;27;45343;-74
2022/06/09 03:31:58;;;;;;;;;5.67;4.00;;;;;14.81;79.08;101007.44;5081055;28;46129;-73
2022/06/09 03:34:24;;;;;;;;;5.00;5.00;;;;;14.76;79.11;100999.94;5082518;27;45305;-74
2022/06/09 03:36:49;;;;;;;;;5.00;5.00;;;;;14.73;78.83;100997.66;5081788;27;45487;-74
2022/06/09 03:39:14;;;;;;;;;5.33;4.00;;;;;14.77;78.88;101007.78;5080427;28;52709;-74
2022/06/09 03:41:40;;;;;;;;;5.00;5.00;;;;;14.74;78.92;101010.84;5097669;27;45272;-73
2022/06/09 03:44:06;;;;;;;;;7.33;5.67;;;;;14.77;79.12;101015.81;5082377;27;45399;-74
2022/06/09 03:46:31;;;;;;;;;6.67;6.00;;;;;14.68;79.00;101000.91;5081698;27;45402;-74
2022/06/09 03:48:57;;;;;;;;;5.00;4.33;;;;;14.72;79.18;101012.03;5081911;28;45468;-74
2022/06/09 03:51:23;;;;;;;;;7.00;4.00;;;;;14.77;79.20;101021.16;5081941;28;45428;-74
2022/06/09 03:53:48;;;;;;;;;5.67;5.67;;;;;14.71;79.02;101024.59;5082026;27;45350;-73
2022/06/09 03:56:16;;;;;;;;;6.33;4.00;;;;;14.73;78.94;101027.91;5081907;27;45369;-73
2022/06/09 03:58:43;;;;;;;;;5.67;5.00;;;;;14.70;78.97;101035.50;5081878;27;45458;-74
2022/06/09 04:01:13;;;;;;;;;5.33;5.33;;;;;14.73;79.03;101049.31;5081860;27;45304;-73
2022/06/09 04:03:41;;;;;;;;;8.00;5.00;;;;;14.67;79.13;101035.88;5081824;27;45425;-73
2022/06/09 04:06:15;;;;;;;;;5.33;5.33;;;;;14.72;79.14;101050.34;5099620;27;46753;-74
2022/06/09 04:08:41;;;;;;;;;8.00;5.00;;;;;14.73;79.18;101056.53;5101556;27;48856;-74
2022/06/09 04:11:08;;;;;;;;;4.00;4.00;;;;;14.73;79.33;101051.97;5102125;27;45216;-73
2022/06/09 04:13:33;;;;;;;;;6.00;4.00;;;;;14.64;79.52;101045.94;5102076;27;45158;-75
2022/06/09 04:15:59;;;;;;;;;6.33;5.67;;;;;14.66;79.41;101050.28;5101842;27;45374;-74
2022/06/09 04:18:24;;;;;;;;;8.00;6.67;;;;;14.63;79.44;101043.47;5102022;27;45294;-75
2022/06/09 04:20:49;;;;;;;;;5.33;4.33;;;;;14.62;79.38;101052.53;5101308;27;49485;-74
2022/06/09 04:23:15;;;;;;;;;5.00;4.67;;;;;14.57;79.74;101060.28;5101758;27;45236;-74
2022/06/09 04:25:40;;;;;;;;;4.00;3.67;;;;;14.69;79.53;101082.00;5100412;27;47164;-73
2022/06/09 04:28:06;;;;;;;;;6.00;3.67;;;;;14.66;79.76;101080.53;5134872;27;47000;-73
2022/06/09 04:30:31;;;;;;;;;5.33;5.33;;;;;14.71;79.98;101069.25;5101709;27;45297;-75
2022/06/09 04:32:57;;;;;;;;;6.67;4.67;;;;;14.71;79.84;101086.13;5135025;27;45352;-74
2022/06/09 04:35:23;;;;;;;;;7.00;3.33;;;;;14.62;79.55;101074.75;5101617;27;45453;-75
2022/06/09 04:38:01;;;;;;;;;5.00;5.00;;;;;14.68;79.88;101088.34;5101328;27;45381;-74
2022/06/09 04:40:29;;;;;;;;;6.33;6.00;;;;;14.74;79.92;101096.47;5100124;27;45300;-74
2022/06/09 04:42:54;;;;;;;;;6.00;5.00;;;;;14.68;79.72;101096.38;5101351;27;45686;-74
2022/06/09 04:45:19;;;;;;;;;8.67;7.67;;;;;14.73;80.11;101102.81;5100950;27;45353;-74
2022/06/09 04:47:45;;;;;;;;;6.00;5.67;;;;;14.75;79.99;101098.09;5100105;27;47073;-74
2022/06/09 04:50:12;;;;;;;;;5.67;5.00;;;;;14.76;79.77;101099.75;5117274;27;45487;-74
2022/06/09 04:52:37;;;;;;;;;6.67;5.67;;;;;14.66;79.78;101080.53;5099665;27;45368;-74
2022/06/09 04:55:04;;;;;;;;;5.33;5.33;;;;;14.74;79.70;101109.84;5101016;27;45324;-74
2022/06/09 04:57:29;;;;;;;;;8.00;6.00;;;;;14.72;79.67;101103.84;5101392;27;46168;-74
2022/06/09 04:59:55;;;;;;;;;5.33;4.67;;;;;14.69;80.26;101101.53;5101300;27;45318;-74
2022/06/09 05:02:20;;;;;;;;;6.67;6.67;;;;;14.71;79.84;101118.25;5082405;27;45267;-75
2022/06/09 05:04:46;;;;;;;;;6.67;6.67;;;;;14.77;79.88;101122.81;5088992;27;45295;-74
2022/06/09 05:07:11;;;;;;;;;7.00;4.00;;;;;14.80;79.88;101124.31;5101151;27;45302;-75
2022/06/09 05:09:36;;;;;;;;;5.67;5.00;;;;;14.75;80.01;101119.50;5101123;27;45344;-74
2022/06/09 05:12:02;;;;;;;;;7.00;6.00;;;;;14.83;80.19;101131.13;5101539;27;45287;-73
2022/06/09 05:14:27;;;;;;;;;7.00;5.00;;;;;14.76;79.96;101121.16;5116763;27;46141;-74
2022/06/09 05:16:53;;;;;;;;;6.00;6.00;;;;;14.81;80.03;101123.28;5101177;27;46285;-74
2022/06/09 05:19:18;;;;;;;;;26.00;23.33;;;;;14.79;80.10;101120.00;5100981;27;45391;-75
2022/06/09 05:21:43;;;;;;;;;9.00;6.67;;;;;14.88;80.03;101134.06;5098624;27;46116;-75
2022/06/09 05:24:11;;;;;;;;;6.33;5.00;;;;;14.86;80.06;101130.72;5099404;27;55058;-75
2022/06/09 05:26:37;;;;;;;;;4.00;4.00;;;;;14.81;80.49;101117.13;5100156;27;45451;-74
2022/06/09 05:29:02;;;;;;;;;8.00;5.67;;;;;14.89;80.07;101133.03;5100915;27;45401;-76
2022/06/09 05:31:28;;;;;;;;;9.33;5.33;;;;;14.88;79.97;101134.88;5100944;27;45312;-76
2022/06/09 05:33:54;;;;;;;;;7.00;5.67;;;;;14.85;79.83;101121.06;5100960;27;45280;-76
2022/06/09 05:36:19;;;;;;;;;4.33;4.33;;;;;14.98;80.14;101139.91;5100595;27;46035;-75
2022/06/09 05:46:58;;;;;;;;;8.00;6.67;;;;;15.04;79.83;101156.19;5100480;27;45385;-75
2022/06/09 05:49:24;;;;;;;;;6.67;6.67;;;;;15.08;79.63;101154.81;5100751;27;45323;-75
2022/06/09 05:51:50;;;;;;;;;5.67;4.67;;;;;15.10;79.41;101155.41;5100641;27;45349;-74
2022/06/09 05:54:16;;;;;;;;;4.00;4.00;;;;;15.17;78.97;101164.31;5100956;27;45487;-75
2022/06/09 05:56:41;;;;;;;;;6.33;5.00;;;;;15.19;79.12;101153.41;5100431;27;46626;-75
2022/06/09 05:59:07;;;;;;;;;5.33;5.33;;;;;15.30;79.18;101177.00;5100501;27;45307;-76
2022/06/09 06:01:32;;;;;;;;;7.67;5.00;;;;;15.32;78.97;101176.81;5100661;27;45227;-75
2022/06/09 06:03:58;;;;;;;;;8.33;5.67;;;;;15.27;78.93;101164.81;5098735;27;45550;-75
2022/06/09 06:06:36;;;;;;;;;6.33;5.67;;;;;15.32;79.33;101166.91;5078277;28;47027;-75
2022/06/09 06:09:11;;;;;;;;;6.33;6.00;;;;;15.43;78.77;101172.75;5079841;28;45440;-76
2022/06/09 06:11:38;;;;;;;;;5.67;5.33;;;;;15.53;78.44;101178.56;5079917;27;45440;-75
2022/06/09 06:14:04;;;;;;;;;8.33;5.00;;;;;15.57;78.66;101177.19;5078416;28;46095;-75
2022/06/09 06:16:30;;;;;;;;;6.00;6.00;;;;;15.53;78.43;101175.88;5079778;28;45769;-75
2022/06/09 06:18:55;;;;;;;;;7.67;5.00;;;;;15.62;78.17;101185.44;5079905;28;45337;-74
2022/06/09 06:21:21;;;;;;;;;6.67;6.67;;;;;15.67;77.79;101187.53;5079586;28;45477;-74
2022/06/09 06:23:47;;;;;;;;;4.33;4.33;;;;;15.75;77.63;101195.38;5079881;28;45292;-74
2022/06/09 06:26:13;;;;;;;;;10.33;6.67;;;;;15.79;77.55;101182.44;5078085;28;46915;-75
2022/06/09 06:28:39;;;;;;;;;8.67;7.00;;;;;15.89;77.70;101190.94;5112464;27;45243;-75
2022/06/09 06:31:05;;;;;;;;;5.67;5.67;;;;;15.88;76.79;101191.13;5079776;27;45376;-74
2022/06/09 06:33:31;;;;;;;;;11.33;8.67;;;;;15.85;76.89;101195.03;5079495;28;45452;-74
2022/06/09 06:35:56;;;;;;;;;8.00;7.00;;;;;15.86;76.70;101201.25;5112270;27;47189;-75
2022/06/09 06:38:22;;;;;;;;;10.00;8.00;;;;;15.86;76.60;101212.78;5079597;27;45347;-76
2022/06/09 06:40:48;;;;;;;;;6.00;5.33;;;;;15.79;76.58;101214.59;5079671;27;45323;-74
2022/06/09 06:43:14;;;;;;;;;6.00;6.00;;;;;15.90;76.64;101215.91;5079360;28;45305;-75
2022/06/09 06:45:39;;;;;;;;;9.33;8.67;;;;;15.95;76.30;101221.47;5077868;28;47914;-75
2022/06/09 06:48:05;;;;;;;;;5.33;4.67;;;;;16.02;76.27;101213.50;5077978;28;45299;-75
2022/06/09 06:50:30;;;;;;;;;7.33;7.33;;;;;16.02;76.02;101208.94;5079389;27;45416;-74
2022/06/09 06:52:56;;;;;;;;;8.00;7.00;;;;;15.98;75.58;101198.84;5079461;27;45291;-75
2022/06/09 06:55:22;;;;;;;;;9.00;7.00;;;;;16.07;75.08;101219.09;5077716;28;56466;-75
2022/06/09 06:57:47;;;;;;;;;7.67;6.67;;;;;16.05;74.71;101220.31;5079361;27;45309;-75
2022/06/09 07:00:17;;;;;;;;;8.67;5.67;;;;;16.10;75.04;101220.56;5079526;27;45506;-74
2022/06/09 07:02:43;;;;;;;;;7.67;6.33;;;;;16.10;74.93;101212.53;5079281;27;45385;-75
2022/06/09 07:05:08;;;;;;;;;7.00;7.00;;;;;16.20;74.76;101218.34;5077523;28;47296;-75
2022/06/09 07:07:35;;;;;;;;;8.67;7.67;;;;;16.21;74.39;101225.34;5078730;28;45322;-75
2022/06/09 07:10:01;;;;;;;;;5.67;5.67;;;;;16.11;74.50;101209.63;5079393;28;45450;-75
2022/06/09 07:12:26;;;;;;;;;9.33;8.00;;;;;16.17;74.58;101228.63;5078987;27;45276;-76
2022/06/09 07:14:51;;;;;;;;;6.00;6.00;;;;;16.22;74.67;101227.00;5079222;27;45259;-74
2022/06/09 07:17:17;;;;;;;;;7.33;7.33;;;;;16.28;74.22;101230.72;5077796;28;45220;-76
2022/06/09 07:19:43;;;;;;;;;6.67;6.00;;;;;16.34;74.23;101226.44;5079201;28;45258;-77
2022/06/09 07:22:08;;;;;;;;;9.67;6.00;;;;;16.42;73.77;101228.91;5078927;27;45433;-76
2022/06/09 07:24:33;;;;;;;;;6.33;5.67;;;;;16.51;73.14;101235.75;5079136;28;45367;-75
2022/06/09 07:26:59;;;;;;;;;7.33;6.33;;;;;16.59;72.51;101241.97;5078983;27;45286;-75
2022/06/09 07:29:25;;;;;;;;;6.00;5.33;;;;;16.73;73.01;101261.63;5079019;28;45489;-75
2022/06/09 07:31:51;;;;;;;;;7.33;7.33;;;;;16.77;72.40;101258.31;5079042;27;45395;-76
2022/06/09 07:34:17;;;;;;;;;13.67;7.33;;;;;16.82;72.03;101263.06;5094506;27;48455;-76
2022/06/09 07:36:43;;;;;;;;;7.67;7.67;;;;;16.83;71.61;101262.06;5079217;27;45406;-76
2022/06/09 07:39:08;;;;;;;;;8.33;7.00;;;;;16.86;70.88;101258.97;5079118;27;45352;-74
2022/06/09 07:41:34;;;;;;;;;6.00;6.00;;;;;16.92;70.63;101262.69;5078821;27;45325;-75
2022/06/09 07:44:03;;;;;;;;;8.00;7.00;;;;;16.95;70.75;101259.59;5079653;27;45369;-76
2022/06/09 07:46:29;;;;;;;;;7.00;7.00;;;;;16.98;69.77;101253.84;5098024;27;46314;-74
2022/06/09 07:48:55;;;;;;;;;8.00;7.00;;;;;17.06;69.86;101270.78;5098072;27;45424;-75
2022/06/09 07:51:20;;;;;;;;;10.00;8.33;;;;;17.12;69.69;101273.47;5081921;27;45281;-75
2022/06/09 07:53:46;;;;;;;;;7.67;7.00;;;;;17.14;69.05;101278.66;5082275;27;45412;-74
2022/06/09 07:56:12;;;;;;;;;8.00;7.00;;;;;17.10;68.54;101275.56;5082097;28;45328;-75
2022/06/09 07:58:38;;;;;;;;;9.00;7.33;;;;;17.12;68.58;101273.47;5082230;28;45362;-75
2022/06/09 08:01:03;;;;;;;;;6.00;6.00;;;;;17.29;68.31;101289.19;5082101;28;45315;-75
2022/06/09 08:03:29;;;;;;;;;5.33;5.33;;;;;17.35;67.78;101300.97;5081783;27;45365;-76
2022/06/09 08:05:55;;;;;;;;;7.67;6.00;;;;;17.41;67.07;101284.88;5099711;27;45365;-75
2022/06/09 08:08:21;;;;;;;;;7.00;7.00;;;;;17.46;65.47;101275.34;5102270;27;45348;-74
2022/06/09 08:10:47;;;;;;;;;7.00;5.67;;;;;17.57;65.85;101290.84;5102194;27;45248;-75
2022/06/09 08:13:15;;;;;;;;;5.00;5.00;;;;;17.62;65.26;101285.69;5103233;27;46262;-76
2022/06/09 08:15:43;;;;;;;;;6.00;6.00;;;;;17.65;65.19;101292.50;5102329;27;45403;-75
2022/06/09 08:18:09;;;;;;;;;6.00;6.00;;;;;17.72;65.47;101295.19;5102408;27;45375;-76
2022/06/09 08:20:38;;;;;;;;;6.33;6.33;;;;;17.77;63.58;101296.22;5100654;27;46008;-75
2022/06/09 08:23:08;;;;;;;;;7.33;6.00;;;;;17.80;65.35;101297.66;5102189;27;45310;-76
2022/06/09 08:25:35;;;;;;;;;6.33;6.00;;;;;17.73;64.41;101294.97;5102154;27;45318;-75
2022/06/09 08:28:02;;;;;;;;;5.00;5.00;;;;;17.80;63.79;101297.66;5102104;27;45336;-76
2022/06/09 08:30:28;;;;;;;;;5.00;5.00;;;;;17.82;64.58;101305.50;5101870;27;45443;-75
2022/06/09 08:32:53;;;;;;;;;6.00;6.00;;;;;17.91;65.05;101298.88;5101695;27;46179;-75
2022/06/09 08:35:20;;;;;;;;;7.33;6.00;;;;;18.08;64.60;101309.19;5102055;27;45287;-76
2022/06/09 08:37:48;;;;;;;;;5.33;5.33;;;;;18.13;64.29;101306.69;5117764;27;45365;-76
2022/06/09 08:40:44;;;;;;;;;7.33;5.00;;;;;18.18;62.45;101320.38;5117640;27;47499;-75
2022/06/09 08:43:18;;;;;;;;;5.00;5.00;;;;;18.12;62.07;101326.56;5101531;27;45447;-75
2022/06/09 08:45:45;;;;;;;;;5.00;5.00;;;;;18.11;63.33;101323.06;5101782;27;45397;-75
2022/06/09 08:48:19;;;;;;;;;6.67;6.00;;;;;18.19;62.68;101323.88;5117578;27;45427;-77
2022/06/09 08:50:59;;;;;;;;;6.67;5.67;;;;;18.28;62.91;101328.81;5101661;27;45426;-74
2022/06/09 08:53:29;;;;;;;;;5.33;5.33;;;;;18.35;60.67;101344.13;5101741;27;45321;-76
2022/06/09 08:55:59;;;;;;;;;5.00;5.00;;;;;18.35;59.55;101336.03;5133516;27;45332;-76
2022/06/09 08:58:38;;;;;;;;;6.00;5.67;;;;;18.38;59.07;101336.44;5101871;27;45275;-75
2022/06/09 09:01:22;;;;;;;;;5.33;5.00;;;;;18.44;59.22;101312.41;5101544;27;45608;-75
2022/06/09 09:04:12;;;;;;;;;7.33;6.33;;;;;18.61;59.95;101324.34;5100964;27;45356;-75
2022/06/09 09:06:50;;;;;;;;;3.33;3.33;;;;;18.68;59.64;101321.63;5080903;28;45398;-75
2022/06/09 09:09:37;;;;;;;;;5.00;5.00;;;;;18.69;58.77;101304.44;5080706;27;45345;-75
2022/06/09 09:12:03;;;;;;;;;4.00;3.33;;;;;18.83;58.03;101315.13;5081823;27;45501;-75
2022/06/09 09:14:36;;;;;;;;;6.33;4.67;;;;;18.78;59.23;101297.75;5080612;27;45306;-76
2022/06/09 09:17:07;;;;;;;;;5.00;4.67;;;;;18.97;57.93;101316.69;5079386;28;45406;-76
2022/06/09 09:19:59;;;;;;;;;6.00;4.67;;;;;18.93;58.14;101312.78;5079549;28;45457;-76
2022/06/09 09:22:24;;;;;;;;;6.00;5.00;;;;;18.93;57.98;101315.47;5080503;27;45334;-74
2022/06/09 09:24:58;;;;;;;;;7.00;7.00;;;;;19.00;58.71;101323.50;5081147;28;46098;-75
2022/06/09 09:27:59;;;;;;;;;6.00;5.00;;;;;19.08;58.19;101326.00;5080704;28;45330;-75
2022/06/09 09:30:36;;;;;;;;;6.67;5.33;;;;;19.14;56.02;101321.59;5081528;27;45255;-75
2022/06/09 09:33:01;;;;;;;;;7.00;5.00;;;;;19.07;55.50;101315.41;5081576;28;45328;-80
2022/06/09 09:35:33;;;;;;;;;7.67;6.67;;;;;19.13;56.40;101322.66;5113517;27;47515;-76
2022/06/09 09:38:00;;;;;;;;;6.00;6.00;;;;;19.29;57.22;101332.91;5096601;27;45185;-75
2022/06/09 09:40:35;;;;;;;;;7.00;6.00;;;;;19.42;57.14;101325.75;5081142;27;45243;-75
2022/06/09 09:43:09;;;;;;;;;6.00;6.00;;;;;19.57;56.33;101327.31;5079435;28;45517;-75
2022/06/09 09:45:44;;;;;;;;;5.67;5.67;;;;;19.68;54.25;101321.16;5080591;27;45312;-75
2022/06/09 09:48:19;;;;;;;;;7.67;7.67;;;;;19.75;55.48;101334.59;5069916;28;45209;-75
2022/06/09 09:51:11;;;;;;;;;3.67;3.67;;;;;19.75;55.06;101338.13;5080458;27;45245;-75
2022/06/09 09:53:39;;;;;;;;;4.33;3.67;;;;;19.67;54.16;101341.09;5080425;27;45298;-75
2022/06/09 09:56:29;;;;;;;;;5.33;4.00;;;;;19.62;52.68;101338.22;5080521;27;45462;-75
2022/06/09 09:58:58;;;;;;;;;7.00;7.00;;;;;19.62;55.13;101330.16;5080386;28;45376;-75
2022/06/09 10:01:24;;;;;;;;;5.67;5.00;;;;;19.86;55.59;101333.88;5080395;27;45223;-75
2022/06/09 10:09:52;;;;;;;;;6.33;6.00;;;;;20.12;53.38;101342.78;5100348;27;45284;-75
2022/06/09 10:12:30;;;;;;;;;7.00;7.00;;;;;20.16;53.55;101332.34;5100621;27;45258;-76
2022/06/09 10:15:11;;;;;;;;;7.00;5.33;;;;;20.26;52.27;101331.84;5100502;27;45473;-76
2022/06/09 10:17:55;;;;;;;;;4.00;4.00;;;;;20.37;50.40;101346.44;5100668;27;46279;-75
2022/06/09 10:20:27;;;;;;;;;7.00;6.00;;;;;20.29;51.50;101325.97;5098769;27;46031;-75
2022/06/09 10:23:10;;;;;;;;;6.00;6.00;;;;;20.49;52.02;101347.34;5100498;27;45364;-75
2022/06/09 10:26:03;;;;;;;;;6.67;6.67;;;;;20.62;52.91;101345.53;5099015;27;46858;-77
2022/06/09 10:28:32;;;;;;;;;4.00;4.00;;;;;20.81;50.94;101363.34;5100273;27;45406;-75
2022/06/09 10:31:22;;;;;;;;;7.00;6.00;;;;;20.97;50.52;101357.56;5099010;27;45969;-76
2022/06/09 10:33:56;;;;;;;;;4.33;4.00;;;;;21.12;49.08;101352.56;5100462;27;45327;-78
2022/06/09 10:36:56;;;;;;;;;4.33;4.00;;;;;21.28;50.56;101351.06;5100065;27;45304;-75
2022/06/09 10:39:49;;;;;;;;;3.33;3.33;;;;;21.52;49.69;101358.41;5100080;27;45307;-76
2022/06/09 10:42:44;;;;;;;;;6.00;5.33;;;;;21.72;49.20;101352.66;5099884;27;45269;-76
2022/06/09 10:45:18;;;;;;;;;4.00;4.00;;;;;21.81;48.70;101355.88;5100268;27;45303;-75
2022/06/09 10:56:31;;;;;;;;;3.00;3.00;;;;;21.71;46.99;101369.94;5099840;27;45392;-75
2022/06/09 10:59:05;;;;;;;;;5.67;5.00;;;;;21.87;46.29;101365.75;5098492;27;46618;-76
2022/06/09 11:01:33;;;;;;;;;3.33;3.33;;;;;22.15;47.16;101364.19;5099823;27;46375;-75
2022/06/09 11:04:00;;;;;;;;;3.67;3.67;;;;;22.31;45.88;101351.84;5096803;27;45316;-78
2022/06/09 11:06:25;;;;;;;;;5.33;4.00;;;;;22.29;45.01;101366.66;5077927;28;45328;-75
2022/06/09 11:09:21;;;;;;;;;9.00;5.00;;;;;22.12;46.63;101361.97;5079108;28;45484;-75
2022/06/09 11:12:08;;;;;;;;;3.33;3.33;;;;;22.18;46.72;101371.03;5077685;28;47151;-75
2022/06/09 11:14:34;;;;;;;;;5.33;4.33;;;;;22.16;47.11;101379.41;5079234;27;45363;-75
2022/06/09 11:17:44;;;;;;;;;6.00;3.33;;;;;22.16;47.28;101375.84;5079409;27;45376;-76
2022/06/09 11:20:43;;;;;;;;;5.67;4.00;;;;;22.13;46.70;101371.75;5077313;27;45216;-76
2022/06/09 11:23:14;;;;;;;;;3.00;3.00;;;;;22.17;48.05;101367.50;5083127;27;45312;-76
2022/06/09 11:26:19;;;;;;;;;3.00;3.00;;;;;22.40;46.74;101378.53;5083060;28;45495;-75
2022/06/09 11:29:09;;;;;;;;;2.67;2.67;;;;;22.50;45.39;101372.47;5082572;27;45441;-75
2022/06/09 11:31:40;;;;;;;;;4.33;4.00;;;;;22.46;46.92;101393.81;5082550;28;45359;-75
2022/06/09 11:34:13;;;;;;;;;3.67;3.67;;;;;22.39;46.49;101385.81;5082500;28;45326;-75
2022/06/09 11:37:02;;;;;;;;;3.00;3.00;;;;;22.25;47.32;101376.31;5082443;28;45248;-75
2022/06/09 11:39:30;;;;;;;;;4.00;4.00;;;;;22.18;46.58;101392.69;5082695;28;45376;-75
2022/06/09 11:42:37;;;;;;;;;4.00;3.00;;;;;22.11;47.55;101386.56;5080941;28;45993;-75
2022/06/09 11:45:31;;;;;;;;;3.33;3.33;;;;;22.09;47.76;101388.69;5080908;28;48223;-75
2022/06/09 11:48:00;;;;;;;;;5.67;5.33;;;;;21.96;46.43;101382.44;5082364;27;45253;-77
2022/06/09 11:50:32;;;;;;;;;5.00;4.67;;;;;21.98;47.32;101399.28;5082342;27;45295;-76
2022/06/09 11:52:59;;;;;;;;;3.67;3.33;;;;;22.01;47.14;101389.88;5082304;27;45583;-74
2022/06/09 11:58:33;;;;;;;;;5.33;3.00;;;;;22.39;46.18;101395.84;5082067;28;45329;-76
2022/06/09 12:01:35;;;;;;;;;5.00;5.00;;;;;22.57;45.35;101389.44;5082490;28;45355;-77
2022/06/09 12:04:31;;;;;;;;;7.33;6.33;;;;;22.82;45.59;101381.03;5084310;27;45520;-75
2022/06/09 12:07:48;;;;;;;;;3.67;3.67;;;;;23.18;44.76;101375.44;5102238;27;46099;-76